Time;durP1;ratioP1;P1;durP2;ratioP2;P2;SDS_P1;SDS_P2;PMS_P1;PMS_P2;Temp;Humidity;BMP_temperature;BMP_pressure;BME280_temperature;BME280_humidity;BME280_pressure;Samples;Min_cycle;Max_cycle;Signal;HPM_P1;HPM_P2
2022/07/26 00:02:11;;;;;;;12.85;3.42;;;19.20;99.90;;;;;;5070937;28;20037;-61
2022/07/26 00:04:36;;;;;;;11.88;3.70;;;19.20;99.90;;;;;;5072307;28;20041;-61
2022/07/26 00:07:02;;;;;;;13.32;3.25;;;19.20;99.90;;;;;;5074807;28;20057;-62
2022/07/26 00:09:28;;;;;;;11.20;3.38;;;19.20;99.90;;;;;;5074150;28;20053;-62
2022/07/26 00:11:54;;;;;;;14.15;3.35;;;19.30;99.90;;;;;;5075462;28;20049;-62
2022/07/26 00:14:20;;;;;;;13.45;3.45;;;19.30;99.90;;;;;;5075026;28;20048;-63
2022/07/26 00:16:45;;;;;;;11.90;3.28;;;19.30;99.90;;;;;;5074317;28;20527;-63
2022/07/26 00:19:11;;;;;;;11.77;3.53;;;19.30;99.90;;;;;;5074784;28;20048;-63
2022/07/26 00:21:37;;;;;;;10.05;3.85;;;19.30;99.90;;;;;;5075380;28;20095;-62
2022/07/26 00:24:03;;;;;;;11.45;2.78;;;19.30;99.90;;;;;;5074918;28;20416;-61
2022/07/26 00:26:29;;;;;;;14.43;3.70;;;19.30;99.90;;;;;;5075169;28;20185;-62
2022/07/26 00:28:55;;;;;;;9.90;2.97;;;19.30;99.90;;;;;;5056551;28;20489;-62
2022/07/26 00:31:21;;;;;;;14.07;3.70;;;19.30;99.90;;;;;;5073287;28;20041;-63
2022/07/26 00:33:47;;;;;;;8.77;2.72;;;19.30;99.90;;;;;;5090882;28;20044;-62
2022/07/26 00:36:12;;;;;;;10.77;3.17;;;19.30;99.90;;;;;;5073106;28;20040;-62
2022/07/26 00:38:39;;;;;;;9.95;2.88;;;19.30;99.90;;;;;;5074776;28;20127;-62
2022/07/26 00:41:05;;;;;;;9.63;2.60;;;19.30;99.90;;;;;;5073211;28;20048;-63
2022/07/26 00:43:32;;;;;;;9.45;2.88;;;19.20;99.90;;;;;;5074692;28;20095;-62
2022/07/26 00:45:58;;;;;;;10.88;2.90;;;19.20;99.90;;;;;;5057054;28;20097;-62
2022/07/26 00:48:23;;;;;;;14.52;3.45;;;19.20;99.90;;;;;;5072758;28;20098;-62
2022/07/26 00:50:51;;;;;;;10.98;3.25;;;19.20;99.90;;;;;;5073461;28;20078;-62
2022/07/26 00:53:19;;;;;;;11.27;2.97;;;19.10;99.90;;;;;;5074143;28;20044;-63
2022/07/26 00:55:46;;;;;;;10.05;2.80;;;19.10;99.90;;;;;;5073428;28;20036;-63
2022/07/26 00:58:12;;;;;;;8.50;2.78;;;19.10;99.90;;;;;;5074256;28;20102;-62
2022/07/26 01:00:38;;;;;;;10.10;3.20;;;19.10;99.90;;;;;;5073569;28;20429;-62
2022/07/26 01:03:04;;;;;;;8.93;2.53;;;19.10;99.90;;;;;;5073875;28;20048;-64
2022/07/26 01:05:31;;;;;;;8.68;2.97;;;19.00;99.90;;;;;;5072822;28;20052;-62
2022/07/26 01:07:57;;;;;;;10.82;3.20;;;19.10;99.90;;;;;;5074094;28;20092;-64
2022/07/26 01:10:24;;;;;;;12.10;3.22;;;19.00;99.90;;;;;;5072686;28;20127;-63
2022/07/26 01:12:50;;;;;;;9.20;2.70;;;19.00;99.90;;;;;;5072929;28;20053;-61
2022/07/26 01:15:16;;;;;;;13.90;3.40;;;19.00;99.90;;;;;;5072876;28;20066;-63
2022/07/26 01:17:43;;;;;;;10.15;3.33;;;19.00;99.90;;;;;;5074138;28;20089;-62
2022/07/26 01:20:11;;;;;;;8.23;2.63;;;19.00;99.90;;;;;;5073788;28;20052;-62
2022/07/26 01:22:37;;;;;;;9.38;2.95;;;19.00;99.90;;;;;;5073610;28;20533;-63
2022/07/26 01:25:03;;;;;;;7.03;2.70;;;19.00;99.90;;;;;;5056440;28;20060;-62
2022/07/26 01:27:29;;;;;;;8.75;2.75;;;19.00;99.90;;;;;;5073682;28;20426;-63
2022/07/26 01:29:55;;;;;;;9.43;2.85;;;19.00;99.90;;;;;;5074054;28;20040;-63
2022/07/26 01:32:21;;;;;;;6.95;2.50;;;19.00;99.90;;;;;;5073502;28;20118;-63
2022/07/26 01:34:46;;;;;;;13.20;3.33;;;19.00;99.90;;;;;;5073497;28;20055;-62
2022/07/26 01:37:12;;;;;;;8.13;2.75;;;19.00;99.90;;;;;;5072216;28;20049;-62
2022/07/26 01:39:38;;;;;;;8.07;2.35;;;18.90;99.90;;;;;;5072858;28;20045;-62
2022/07/26 01:42:03;;;;;;;8.45;2.88;;;19.00;99.90;;;;;;5073636;28;20102;-63
2022/07/26 01:44:29;;;;;;;7.63;2.53;;;19.00;99.90;;;;;;5072020;28;20627;-63
2022/07/26 01:46:55;;;;;;;9.02;3.13;;;18.90;99.90;;;;;;5055646;28;20489;-63
2022/07/26 01:49:20;;;;;;;8.20;2.55;;;18.90;99.90;;;;;;5073226;28;20079;-63
2022/07/26 01:51:46;;;;;;;9.40;2.60;;;19.00;99.90;;;;;;5073644;28;20128;-63
2022/07/26 01:54:12;;;;;;;10.43;3.08;;;18.90;99.90;;;;;;5073124;28;20131;-65
2022/07/26 01:56:38;;;;;;;9.02;2.80;;;18.90;99.90;;;;;;5071804;28;20036;-63
2022/07/26 01:59:03;;;;;;;8.75;2.80;;;19.00;99.90;;;;;;5073442;28;20060;-62
2022/07/26 02:01:29;;;;;;;6.25;2.97;;;18.90;99.90;;;;;;5072675;28;20053;-63
2022/07/26 02:03:55;;;;;;;7.00;2.42;;;18.90;99.90;;;;;;5072056;28;20048;-64
2022/07/26 02:06:20;;;;;;;8.60;3.05;;;18.90;99.90;;;;;;5072746;28;20462;-62
2022/07/26 02:08:46;;;;;;;9.13;2.78;;;;;;;;;;5055281;28;20401;-62
2022/07/26 02:11:12;;;;;;;4.80;2.15;;;18.80;99.90;;;;;;5072909;28;20048;-64
2022/07/26 02:13:40;;;;;;;7.70;2.65;;;18.70;99.90;;;;;;5073004;28;20178;-62
2022/07/26 02:16:12;;;;;;;9.88;3.13;;;18.70;99.90;;;;;;5071744;28;20043;-62
2022/07/26 02:18:39;;;;;;;9.40;3.45;;;18.70;99.90;;;;;;5071523;28;20044;-63
2022/07/26 02:21:06;;;;;;;10.18;3.58;;;18.70;99.90;;;;;;5073011;28;20044;-62
2022/07/26 02:23:33;;;;;;;12.00;4.05;;;18.60;99.90;;;;;;5072469;28;20056;-61
2022/07/26 02:25:59;;;;;;;11.18;4.13;;;18.60;99.90;;;;;;5072749;28;20055;-62
2022/07/26 02:28:25;;;;;;;10.77;2.88;;;18.50;99.90;;;;;;5071647;28;20055;-62
2022/07/26 02:30:51;;;;;;;6.28;2.88;;;18.30;99.90;;;;;;5072881;28;20040;-63
2022/07/26 02:33:17;;;;;;;8.90;2.67;;;18.20;99.90;;;;;;5072458;28;20052;-64
2022/07/26 02:35:43;;;;;;;10.23;3.20;;;18.10;99.90;;;;;;5072472;28;20048;-61
2022/07/26 02:38:13;;;;;;;9.43;3.10;;;18.10;99.90;;;;;;5071297;28;20087;-63
2022/07/26 02:40:39;;;;;;;12.95;3.13;;;18.00;99.90;;;;;;5071876;28;20048;-63
2022/07/26 02:43:07;;;;;;;7.07;2.83;;;18.00;99.90;;;;;;5054878;28;20060;-63
2022/07/26 02:45:33;;;;;;;9.40;2.97;;;17.90;99.90;;;;;;5072099;28;20107;-63
2022/07/26 02:47:59;;;;;;;9.45;2.80;;;17.80;99.90;;;;;;5088229;28;20394;-61
2022/07/26 02:50:27;;;;;;;10.18;3.13;;;17.80;99.90;;;;;;5072011;28;20110;-62
2022/07/26 02:52:53;;;;;;;12.43;2.85;;;17.80;99.90;;;;;;5071326;28;20505;-62
2022/07/26 02:55:22;;;;;;;8.98;2.40;;;17.80;99.90;;;;;;5071007;28;20048;-64
2022/07/26 02:57:48;;;;;;;13.82;3.03;;;17.80;99.90;;;;;;5071114;28;20084;-62
2022/07/26 03:00:16;;;;;;;11.77;2.72;;;17.80;99.90;;;;;;5070930;28;20063;-62
2022/07/26 03:02:42;;;;;;;12.15;2.72;;;17.80;99.90;;;;;;5071852;28;20131;-62
2022/07/26 03:05:09;;;;;;;11.90;2.78;;;17.70;99.90;;;;;;5072225;28;20045;-62
2022/07/26 03:07:35;;;;;;;10.07;2.17;;;17.70;99.90;;;;;;5071645;28;20409;-62
2022/07/26 03:10:01;;;;;;;10.60;2.60;;;17.60;99.90;;;;;;5071966;28;20037;-61
2022/07/26 03:12:26;;;;;;;8.13;2.47;;;17.60;99.90;;;;;;5070400;28;20356;-62
2022/07/26 03:14:52;;;;;;;7.45;2.10;;;17.60;99.90;;;;;;5071622;28;20066;-62
2022/07/26 03:17:18;;;;;;;9.95;2.85;;;17.60;99.90;;;;;;5071869;28;20048;-62
2022/07/26 03:19:44;;;;;;;10.70;2.28;;;17.60;99.90;;;;;;5071592;28;20420;-62
2022/07/26 03:22:10;;;;;;;8.45;2.40;;;17.60;99.90;;;;;;5071976;28;20044;-62
2022/07/26 03:24:36;;;;;;;10.77;3.00;;;17.60;99.90;;;;;;5071591;28;20040;-62
2022/07/26 03:27:02;;;;;;;7.85;2.22;;;17.50;99.90;;;;;;5071742;28;20506;-62
2022/07/26 03:29:28;;;;;;;8.82;2.13;;;17.60;99.90;;;;;;5070502;28;20513;-63
2022/07/26 03:31:54;;;;;;;4.57;1.83;;;17.50;99.90;;;;;;5071700;28;20044;-62
2022/07/26 03:34:20;;;;;;;11.13;2.28;;;17.50;99.90;;;;;;5071745;28;20147;-62
2022/07/26 03:36:45;;;;;;;9.18;2.08;;;17.50;99.90;;;;;;5071309;28;20131;-61
2022/07/26 03:39:11;;;;;;;7.13;2.17;;;17.50;99.90;;;;;;5053694;28;20045;-62
2022/07/26 03:41:37;;;;;;;6.38;1.70;;;17.50;99.90;;;;;;5071136;28;20136;-62
2022/07/26 03:44:03;;;;;;;5.35;2.13;;;17.50;99.90;;;;;;5070486;28;20049;-62
2022/07/26 03:46:29;;;;;;;6.85;2.15;;;17.50;99.90;;;;;;5071363;28;20063;-63
2022/07/26 03:48:55;;;;;;;4.50;1.50;;;17.40;99.90;;;;;;5071534;28;20044;-63
2022/07/26 03:51:21;;;;;;;8.63;2.05;;;17.40;99.90;;;;;;5071516;28;20075;-63
2022/07/26 03:53:46;;;;;;;8.40;1.85;;;17.40;99.90;;;;;;5070024;28;20044;-63
2022/07/26 03:56:27;;;;;;;4.28;1.58;;;17.40;99.90;;;;;;5071316;28;20040;-62
2022/07/26 03:58:54;;;;;;;7.13;1.90;;;17.40;99.90;;;;;;5069637;28;20059;-62
2022/07/26 04:01:20;;;;;;;8.20;1.45;;;17.40;99.90;;;;;;5071142;28;20045;-62
2022/07/26 04:03:46;;;;;;;5.50;1.60;;;17.40;99.90;;;;;;5052852;28;20131;-63
2022/07/26 04:06:12;;;;;;;6.78;1.95;;;17.40;99.90;;;;;;5070839;28;20136;-62
2022/07/26 04:08:37;;;;;;;7.75;1.60;;;17.40;99.90;;;;;;5069278;28;20585;-61
2022/07/26 04:11:03;;;;;;;5.55;1.38;;;17.40;99.90;;;;;;5070341;28;20048;-61
2022/07/26 04:13:29;;;;;;;5.88;1.58;;;17.30;99.90;;;;;;5071275;28;20125;-64
2022/07/26 04:15:55;;;;;;;7.30;1.88;;;17.30;99.90;;;;;;5069697;28;20534;-62
2022/07/26 04:18:20;;;;;;;6.05;1.40;;;17.30;99.90;;;;;;5071280;28;20040;-63
2022/07/26 04:20:46;;;;;;;5.07;1.40;;;17.40;99.90;;;;;;5070601;28;20438;-63
2022/07/26 04:23:12;;;;;;;7.13;1.75;;;17.40;99.90;;;;;;5071285;28;20044;-63
2022/07/26 04:25:38;;;;;;;6.60;1.60;;;17.40;99.90;;;;;;5070697;28;20036;-63
2022/07/26 04:28:04;;;;;;;3.72;1.42;;;17.40;99.90;;;;;;5071048;28;20102;-61
2022/07/26 04:30:30;;;;;;;5.97;1.50;;;17.30;99.90;;;;;;5069842;28;20052;-63
2022/07/26 04:32:55;;;;;;;6.88;1.73;;;17.20;99.90;;;;;;5070778;28;20106;-62
2022/07/26 04:35:21;;;;;;;9.93;1.65;;;17.20;99.90;;;;;;5071274;28;20053;-63
2022/07/26 04:37:47;;;;;;;7.70;1.83;;;17.10;99.90;;;;;;5070757;28;20041;-61
2022/07/26 04:40:21;;;;;;;7.22;1.58;;;17.10;99.90;;;;;;5071141;28;20040;-61
2022/07/26 04:42:49;;;;;;;3.80;1.20;;;17.00;99.90;;;;;;5052646;28;20048;-62
2022/07/26 04:45:15;;;;;;;5.25;1.52;;;17.00;99.90;;;;;;5070751;28;20613;-61
2022/07/26 04:47:47;;;;;;;5.63;1.70;;;17.00;99.90;;;;;;5070707;28;20053;-62
2022/07/26 04:50:13;;;;;;;5.20;1.38;;;17.00;99.90;;;;;;5070772;28;20049;-62
2022/07/26 04:52:39;;;;;;;5.97;1.70;;;17.00;99.90;;;;;;5074171;28;20063;-63
2022/07/26 04:55:06;;;;;;;5.28;1.70;;;17.00;99.90;;;;;;5074259;28;20041;-62
2022/07/26 04:57:32;;;;;;;4.15;1.30;;;17.00;99.90;;;;;;5074557;28;20400;-62
2022/07/26 04:59:58;;;;;;;6.20;1.55;;;17.00;99.90;;;;;;5074266;28;20048;-62
2022/07/26 05:02:24;;;;;;;4.38;1.30;;;17.00;99.90;;;;;;5074314;28;20094;-62
2022/07/26 05:04:49;;;;;;;8.95;1.92;;;17.10;99.90;;;;;;5072801;28;20083;-63
2022/07/26 05:07:15;;;;;;;6.90;2.00;;;17.10;99.90;;;;;;5072650;28;20502;-62
2022/07/26 05:09:41;;;;;;;5.40;1.60;;;17.10;99.90;;;;;;5073873;28;20127;-62
2022/07/26 05:12:07;;;;;;;5.63;1.30;;;17.20;99.90;;;;;;5074290;28;20107;-63
2022/07/26 05:14:33;;;;;;;4.50;1.38;;;17.20;99.90;;;;;;5074145;28;20061;-63
2022/07/26 05:16:59;;;;;;;5.07;1.20;;;17.20;99.90;;;;;;5073753;28;20044;-63
2022/07/26 05:19:25;;;;;;;3.70;1.33;;;17.20;99.90;;;;;;5074120;28;20048;-63
2022/07/26 05:21:50;;;;;;;6.00;1.40;;;17.20;99.90;;;;;;5055812;28;20135;-62
2022/07/26 05:24:16;;;;;;;5.57;1.48;;;17.10;99.90;;;;;;5072780;28;20470;-62
2022/07/26 05:26:42;;;;;;;5.47;1.20;;;17.10;99.90;;;;;;5072340;28;20462;-63
2022/07/26 05:29:07;;;;;;;4.18;0.93;;;17.10;99.90;;;;;;5056051;28;20387;-62
2022/07/26 05:31:33;;;;;;;6.38;1.25;;;17.10;99.90;;;;;;5073921;28;20254;-63
2022/07/26 05:33:59;;;;;;;5.32;1.20;;;17.10;99.90;;;;;;5073626;28;20119;-61
2022/07/26 05:36:24;;;;;;;4.63;1.27;;;17.00;99.90;;;;;;5072692;28;20044;-61
2022/07/26 05:38:50;;;;;;;6.00;1.40;;;16.90;99.90;;;;;;5072289;28;20411;-62
2022/07/26 05:41:16;;;;;;;8.55;1.60;;;16.80;99.90;;;;;;5073872;28;20047;-63
2022/07/26 05:43:42;;;;;;;4.95;1.13;;;16.70;99.90;;;;;;5072193;28;20148;-65
2022/07/26 05:46:09;;;;;;;4.32;1.38;;;16.70;99.90;;;;;;5072481;28;20052;-63
2022/07/26 05:48:34;;;;;;;6.78;1.30;;;16.70;99.90;;;;;;5072380;28;20052;-63
2022/07/26 05:51:00;;;;;;;4.65;1.40;;;16.70;99.90;;;;;;5073345;28;20040;-63
2022/07/26 05:53:26;;;;;;;5.75;1.55;;;16.80;99.90;;;;;;5072112;28;20375;-62
2022/07/26 05:55:52;;;;;;;7.28;1.50;;;16.80;99.90;;;;;;5071734;28;20036;-63
2022/07/26 05:58:17;;;;;;;6.10;1.58;;;16.90;99.90;;;;;;5073404;28;20044;-62
2022/07/26 06:00:43;;;;;;;6.75;1.67;;;17.00;99.90;;;;;;5072123;28;20144;-64
2022/07/26 06:03:21;;;;;;;4.95;1.33;;;17.00;99.90;;;;;;5072184;28;20051;-63
2022/07/26 06:05:51;;;;;;;4.10;1.50;;;17.10;99.90;;;;;;5073051;28;20040;-64
2022/07/26 06:08:18;;;;;;;7.25;1.40;;;17.10;99.90;;;;;;5071466;28;20057;-62
2022/07/26 06:10:45;;;;;;;4.95;1.35;;;17.10;99.90;;;;;;5073281;28;20044;-62
2022/07/26 06:13:11;;;;;;;3.35;1.15;;;17.10;99.90;;;;;;5072888;28;20054;-64
2022/07/26 06:15:37;;;;;;;4.32;1.13;;;17.10;99.90;;;;;;5072829;28;20123;-63
2022/07/26 06:18:05;;;;;;;3.80;1.15;;;17.20;99.90;;;;;;5072257;28;20126;-63
2022/07/26 06:20:32;;;;;;;6.50;1.45;;;17.20;99.90;;;;;;5072817;28;20427;-63
2022/07/26 06:22:58;;;;;;;5.18;1.65;;;17.30;99.90;;;;;;5072543;28;20044;-64
2022/07/26 06:25:25;;;;;;;5.63;1.58;;;17.30;99.90;;;;;;5072645;28;20051;-65
2022/07/26 06:27:51;;;;;;;6.15;1.48;;;17.30;99.90;;;;;;5072251;28;20052;-64
2022/07/26 06:30:17;;;;;;;5.13;1.30;;;17.30;99.90;;;;;;5054779;28;20074;-63
2022/07/26 06:32:43;;;;;;;3.63;1.20;;;17.40;99.90;;;;;;5072902;28;20044;-63
2022/07/26 06:35:10;;;;;;;5.68;1.52;;;17.40;99.90;;;;;;5070863;28;20121;-63
2022/07/26 06:37:40;;;;;;;5.13;1.35;;;17.40;99.90;;;;;;5072522;28;20041;-63
2022/07/26 06:40:07;;;;;;;12.30;1.80;;;17.40;99.90;;;;;;5072239;28;20053;-63
2022/07/26 06:42:33;;;;;;;4.38;1.48;;;17.30;99.90;;;;;;5072028;28;20044;-63
2022/07/26 06:45:00;;;;;;;7.70;1.40;;;17.30;99.90;;;;;;5070740;28;20040;-63
2022/07/26 06:47:26;;;;;;;6.63;1.40;;;17.40;99.90;;;;;;5072189;28;20048;-65
2022/07/26 06:49:52;;;;;;;9.45;1.58;;;17.40;99.90;;;;;;5072420;28;20045;-64
2022/07/26 06:52:18;;;;;;;6.47;1.30;;;17.60;99.90;;;;;;5071007;28;20045;-63
2022/07/26 06:54:44;;;;;;;7.05;1.50;;;17.70;99.90;;;;;;5072129;28;20135;-64
2022/07/26 06:57:09;;;;;;;6.28;1.13;;;17.80;99.90;;;;;;5071484;28;20062;-64
2022/07/26 06:59:35;;;;;;;4.13;0.95;;;18.00;99.90;;;;;;5070846;28;20501;-64
2022/07/26 07:02:01;;;;;;;5.63;1.17;;;18.00;99.90;;;;;;5070511;28;20051;-64
2022/07/26 07:04:28;;;;;;;4.93;1.20;;;18.00;99.90;;;;;;5072329;28;20049;-64
2022/07/26 07:06:54;;;;;;;3.97;1.23;;;18.00;99.90;;;;;;5071950;28;20045;-65
2022/07/26 07:09:20;;;;;;;6.70;1.50;;;18.00;99.90;;;;;;5071472;28;20059;-64
2022/07/26 07:11:48;;;;;;;2.95;1.00;;;18.00;99.90;;;;;;5054483;28;20095;-64
2022/07/26 07:14:14;;;;;;;4.57;1.20;;;17.90;99.90;;;;;;5071367;28;20194;-64
2022/07/26 07:16:39;;;;;;;5.88;1.40;;;17.80;99.90;;;;;;5070842;28;20041;-64
2022/07/26 07:19:05;;;;;;;3.70;1.02;;;17.90;99.90;;;;;;5053834;28;20075;-65
2022/07/26 07:21:32;;;;;;;5.28;1.20;;;17.90;99.90;;;;;;5070897;28;20139;-64
2022/07/26 07:23:58;;;;;;;6.47;1.35;;;18.00;99.90;;;;;;5070496;28;20133;-65
2022/07/26 07:26:24;;;;;;;4.10;0.93;;;18.20;99.90;;;;;;5070889;28;20440;-64
2022/07/26 07:28:50;;;;;;;7.13;1.70;;;18.20;99.90;;;;;;5070424;28;20044;-65
2022/07/26 07:31:16;;;;;;;7.43;1.67;;;18.20;99.90;;;;;;5071555;28;20076;-64
2022/07/26 07:33:42;;;;;;;5.22;1.45;;;18.30;99.90;;;;;;5071441;28;20571;-64
2022/07/26 07:36:07;;;;;;;10.30;1.95;;;18.40;99.90;;;;;;5070712;28;20040;-64
2022/07/26 07:38:33;;;;;;;7.78;1.60;;;18.30;99.90;;;;;;5071753;28;20091;-63
2022/07/26 07:40:59;;;;;;;9.65;2.00;;;18.20;99.90;;;;;;5071261;28;20103;-65
2022/07/26 07:43:25;;;;;;;4.53;1.45;;;18.20;99.90;;;;;;5071132;28;20052;-65
2022/07/26 07:45:50;;;;;;;7.10;1.52;;;18.10;99.90;;;;;;5071475;28;20037;-65
2022/07/26 07:48:16;;;;;;;6.63;1.73;;;18.10;99.90;;;;;;5053120;28;20367;-64
2022/07/26 07:50:42;;;;;;;8.93;2.53;;;18.00;99.90;;;;;;5070251;28;20139;-63
2022/07/26 07:53:08;;;;;;;4.75;1.20;;;18.00;99.90;;;;;;5070079;28;20348;-63
2022/07/26 07:55:33;;;;;;;6.30;1.40;;;17.90;99.90;;;;;;5069569;28;20673;-65
2022/07/26 07:57:59;;;;;;;6.78;1.88;;;18.00;99.90;;;;;;5071401;28;20047;-65
2022/07/26 08:00:25;;;;;;;7.22;1.70;;;18.00;99.90;;;;;;5052516;28;20515;-63
2022/07/26 08:02:51;;;;;;;7.57;1.60;;;18.00;99.90;;;;;;5070944;28;20486;-63
2022/07/26 08:05:17;;;;;;;3.47;1.38;;;18.10;99.90;;;;;;5069538;28;20055;-62
2022/07/26 08:07:42;;;;;;;5.47;1.30;;;18.10;99.90;;;;;;5069720;28;20057;-63
2022/07/26 08:10:09;;;;;;;5.63;1.75;;;18.10;99.90;;;;;;5053043;28;20445;-64
2022/07/26 08:12:35;;;;;;;6.53;1.25;;;18.10;99.90;;;;;;5071152;28;20421;-63
2022/07/26 08:15:01;;;;;;;5.00;1.42;;;18.20;99.90;;;;;;5071011;28;20044;-63
2022/07/26 08:17:27;;;;;;;9.32;1.83;;;18.30;99.90;;;;;;5070764;28;20500;-63
2022/07/26 08:19:53;;;;;;;5.32;1.42;;;18.60;99.90;;;;;;5070776;28;20056;-63
2022/07/26 08:22:18;;;;;;;4.32;1.40;;;19.20;99.90;;;;;;5069347;28;20056;-63
2022/07/26 08:24:45;;;;;;;8.25;1.60;;;19.70;99.90;;;;;;5070927;28;20432;-64
2022/07/26 08:27:12;;;;;;;6.28;1.52;;;19.90;99.90;;;;;;5072457;28;20135;-64
2022/07/26 08:29:38;;;;;;;7.75;2.13;;;20.00;99.90;;;;;;5073637;28;20509;-64
2022/07/26 08:32:04;;;;;;;5.97;1.50;;;19.90;99.90;;;;;;5074641;28;20052;-64
2022/07/26 08:34:30;;;;;;;5.63;1.55;;;19.90;99.90;;;;;;5074219;28;20052;-63
2022/07/26 08:36:55;;;;;;;8.40;1.80;;;19.80;99.90;;;;;;5074805;28;20494;-63
2022/07/26 08:39:21;;;;;;;6.53;1.67;;;19.60;99.90;;;;;;5074378;28;20044;-65
2022/07/26 08:41:47;;;;;;;8.20;1.83;;;19.40;99.90;;;;;;5072862;28;20060;-63
2022/07/26 08:44:13;;;;;;;7.20;1.73;;;19.10;99.90;;;;;;5055676;28;20048;-63
2022/07/26 08:46:41;;;;;;;6.53;1.77;;;18.90;99.90;;;;;;5074725;28;20127;-64
2022/07/26 08:49:11;;;;;;;7.72;2.05;;;18.80;99.90;;;;;;5074378;28;20098;-64
2022/07/26 08:51:39;;;;;;;6.57;1.65;;;18.80;99.90;;;;;;5073499;28;20407;-64
2022/07/26 08:54:06;;;;;;;7.35;2.10;;;18.80;99.90;;;;;;5072832;28;20053;-65
2022/07/26 08:56:39;;;;;;;7.72;2.13;;;19.00;99.90;;;;;;5089544;28;20044;-63
2022/07/26 08:59:15;;;;;;;11.88;2.47;;;18.90;99.90;;;;;;5074686;28;20048;-63
2022/07/26 09:01:56;;;;;;;8.98;2.35;;;18.80;99.90;;;;;;5072864;28;20105;-63
2022/07/26 09:04:25;;;;;;;9.73;2.10;;;18.60;99.90;;;;;;5073840;28;20044;-64
2022/07/26 09:07:10;;;;;;;9.63;2.10;;;18.50;99.90;;;;;;5072575;28;20037;-62
2022/07/26 09:09:55;;;;;;;15.15;2.78;;;18.40;99.90;;;;;;5072728;28;20804;-63
2022/07/26 09:12:23;;;;;;;10.15;2.47;;;18.40;99.90;;;;;;5069153;28;20127;-64
2022/07/26 09:14:49;;;;;;;10.10;2.30;;;18.50;99.90;;;;;;5072370;28;20044;-63
2022/07/26 09:17:17;;;;;;;8.52;2.28;;;18.50;99.90;;;;;;5053110;28;20493;-64
2022/07/26 09:19:43;;;;;;;10.48;2.40;;;18.60;99.90;;;;;;5072328;28;20460;-65
2022/07/26 09:22:14;;;;;;;8.05;2.20;;;18.70;99.90;;;;;;5074079;28;20051;-65
2022/07/26 09:24:42;;;;;;;9.90;2.45;;;18.70;99.90;;;;;;5073694;28;20127;-65
2022/07/26 09:27:13;;;;;;;10.82;2.17;;;18.70;99.90;;;;;;5072131;28;20546;-63
2022/07/26 09:29:53;;;;;;;11.05;2.88;;;18.70;99.90;;;;;;5071998;28;20051;-64
2022/07/26 09:32:24;;;;;;;9.60;2.53;;;18.70;99.90;;;;;;5073293;28;20044;-64
2022/07/26 09:34:51;;;;;;;11.13;2.47;;;18.70;99.90;;;;;;5072349;28;20060;-63
2022/07/26 09:37:17;;;;;;;12.43;2.80;;;18.70;99.90;;;;;;5072268;28;20446;-66
2022/07/26 09:39:54;;;;;;;12.30;2.97;;;18.70;99.90;;;;;;5073756;28;20048;-63
2022/07/26 09:42:20;;;;;;;10.25;2.67;;;18.80;99.90;;;;;;5073134;28;20051;-65
2022/07/26 09:44:46;;;;;;;11.85;2.42;;;18.80;99.90;;;;;;5055451;28;20041;-64
2022/07/26 09:47:12;;;;;;;13.25;3.10;;;18.80;99.90;;;;;;5071716;28;20040;-63
2022/07/26 09:49:38;;;;;;;11.30;2.63;;;18.90;99.90;;;;;;5072787;28;20101;-63
2022/07/26 09:52:17;;;;;;;10.57;2.40;;;18.80;99.90;;;;;;5073242;28;20044;-63
2022/07/26 09:54:45;;;;;;;10.18;2.42;;;18.90;99.90;;;;;;5072885;28;20375;-64
2022/07/26 09:57:13;;;;;;;11.20;2.75;;;18.90;99.90;;;;;;5071836;28;20393;-64
2022/07/26 09:59:39;;;;;;;10.68;2.63;;;19.00;99.90;;;;;;5071507;28;20618;-64
2022/07/26 10:02:05;;;;;;;9.43;2.25;;;19.00;99.90;;;;;;5073129;28;20040;-64
2022/07/26 10:04:30;;;;;;;12.35;2.55;;;19.10;99.90;;;;;;5072804;28;20048;-64
2022/07/26 10:07:01;;;;;;;8.23;2.50;;;19.10;99.90;;;;;;5071821;28;20056;-64
2022/07/26 10:09:33;;;;;;;8.63;2.05;;;19.20;99.90;;;;;;5071527;28;20048;-64
2022/07/26 10:12:05;;;;;;;6.95;2.28;;;19.30;99.90;;;;;;5055270;28;20486;-66
2022/07/26 10:14:40;;;;;;;8.57;2.25;;;19.40;99.90;;;;;;5071304;28;20402;-64
2022/07/26 10:17:27;;;;;;;7.72;2.20;;;19.40;99.90;;;;;;5072576;28;20513;-65
2022/07/26 10:20:05;;;;;;;8.07;2.03;;;19.50;99.70;;;;;;5072861;28;20048;-63
2022/07/26 10:22:35;;;;;;;11.35;2.33;;;19.40;99.60;;;;;;5071399;28;20059;-64
2022/07/26 10:25:16;;;;;;;8.55;2.53;;;19.50;99.90;;;;;;5072718;28;20131;-64
2022/07/26 10:27:49;;;;;;;6.28;1.90;;;19.60;99.50;;;;;;5072395;28;20052;-63
2022/07/26 10:30:17;;;;;;;7.10;2.00;;;19.70;98.90;;;;;;5071995;28;20059;-64
2022/07/26 10:32:55;;;;;;;9.68;2.00;;;19.90;99.40;;;;;;5072355;28;20052;-63
2022/07/26 10:35:33;;;;;;;13.07;2.80;;;20.00;99.90;;;;;;5054956;28;20496;-65
2022/07/26 10:38:02;;;;;;;9.45;1.92;;;20.10;99.00;;;;;;5072677;28;20041;-63
2022/07/26 10:40:31;;;;;;;8.65;2.05;;;20.20;99.00;;;;;;5071237;28;20056;-66
2022/07/26 10:43:13;;;;;;;10.45;1.92;;;20.20;98.60;;;;;;5072207;28;20052;-63
2022/07/26 10:45:40;;;;;;;7.53;2.10;;;20.40;98.70;;;;;;5071171;28;20052;-63
2022/07/26 10:48:10;;;;;;;10.65;2.28;;;20.50;98.70;;;;;;5070953;28;20052;-63
2022/07/26 10:50:36;;;;;;;6.97;1.75;;;20.60;96.80;;;;;;5072073;28;20080;-64
2022/07/26 10:53:03;;;;;;;6.57;1.88;;;20.60;96.60;;;;;;5072417;28;20455;-64
2022/07/26 10:55:28;;;;;;;7.85;2.10;;;20.70;96.30;;;;;;5071593;28;20084;-65
2022/07/26 10:57:54;;;;;;;5.50;1.88;;;20.60;96.00;;;;;;5072261;28;20098;-63
2022/07/26 11:00:23;;;;;;;7.75;2.45;;;20.60;96.90;;;;;;5072067;28;20044;-62
2022/07/26 11:02:57;;;;;;;8.52;2.20;;;20.60;96.10;;;;;;5070719;28;20290;-65
2022/07/26 11:05:29;;;;;;;4.65;1.50;;;20.70;95.90;;;;;;5072208;28;20135;-64
2022/07/26 11:08:09;;;;;;;8.65;1.88;;;20.90;95.70;;;;;;5070723;28;20048;-64
2022/07/26 11:10:41;;;;;;;6.07;1.50;;;21.00;95.80;;;;;;5071862;28;20052;-63
2022/07/26 11:13:11;;;;;;;6.95;1.88;;;20.90;95.10;;;;;;5071988;28;20055;-62
2022/07/26 11:15:42;;;;;;;5.68;1.58;;;20.90;95.40;;;;;;5071502;28;20040;-63
2022/07/26 11:18:26;;;;;;;4.55;1.40;;;20.90;95.50;;;;;;5071866;28;20037;-63
2022/07/26 11:20:54;;;;;;;5.18;1.38;;;20.90;94.80;;;;;;5053244;28;20047;-64
2022/07/26 11:23:35;;;;;;;6.40;1.40;;;20.80;94.70;;;;;;5070926;28;20502;-63
2022/07/26 11:26:16;;;;;;;8.70;1.75;;;20.60;94.50;;;;;;5071767;28;20127;-63
2022/07/26 11:28:47;;;;;;;4.57;1.58;;;20.70;94.80;;;;;;5071501;28;20127;-63
2022/07/26 11:31:13;;;;;;;4.72;1.45;;;20.80;94.60;;;;;;5071815;28;20048;-63
2022/07/26 11:33:42;;;;;;;6.47;1.58;;;21.20;94.80;;;;;;5071176;28;20048;-63
2022/07/26 11:36:08;;;;;;;4.05;1.30;;;21.30;93.60;;;;;;5071724;28;20051;-64
2022/07/26 11:38:52;;;;;;;4.28;1.25;;;21.40;93.50;;;;;;5070584;28;20067;-66
2022/07/26 11:41:26;;;;;;;5.28;1.60;;;21.40;93.70;;;;;;5071757;28;20049;-64
2022/07/26 11:43:52;;;;;;;5.53;1.17;;;21.60;93.80;;;;;;5070108;28;20059;-65
2022/07/26 11:46:19;;;;;;;5.68;1.40;;;21.60;93.70;;;;;;5071777;28;20123;-64
2022/07/26 11:48:52;;;;;;;7.82;1.80;;;21.50;93.50;;;;;;5070040;28;20343;-62
2022/07/26 11:51:21;;;;;;;5.13;1.60;;;21.50;93.40;;;;;;5071105;28;20044;-63
2022/07/26 11:53:47;;;;;;;4.88;1.23;;;21.60;93.50;;;;;;5070014;28;20076;-63
2022/07/26 11:56:16;;;;;;;6.90;1.70;;;21.60;93.60;;;;;;5071233;28;20040;-63
2022/07/26 11:58:43;;;;;;;4.47;1.15;;;21.50;93.10;;;;;;5070915;28;20044;-64
2022/07/26 12:01:10;;;;;;;4.68;1.27;;;21.60;93.40;;;;;;5073868;28;20131;-63
2022/07/26 12:03:37;;;;;;;4.18;1.40;;;21.50;93.70;;;;;;5075622;28;20055;-64
2022/07/26 12:06:05;;;;;;;5.00;1.33;;;21.40;94.00;;;;;;5057474;28;20176;-62
2022/07/26 12:08:44;;;;;;;4.85;1.40;;;21.30;93.00;;;;;;5073990;28;20049;-63
2022/07/26 12:11:11;;;;;;;3.92;1.20;;;21.30;93.50;;;;;;5074699;28;20052;-64
2022/07/26 12:14:23;;;;;;;5.18;1.73;;;21.40;93.60;;;;;;5074299;28;20052;-64
2022/07/26 12:16:49;;;;;;;8.45;1.98;;;21.40;94.10;;;;;;5052196;28;20529;-64
2022/07/26 12:19:17;;;;;;;6.05;1.50;;;21.30;94.10;;;;;;5071884;28;20056;-63
2022/07/26 12:21:48;;;;;;;3.63;1.40;;;21.10;94.00;;;;;;5074796;28;20051;-66
2022/07/26 12:24:55;;;;;;;6.63;1.60;;;21.10;94.20;;;;;;5075516;28;20482;-63
2022/07/26 12:27:21;;;;;;;3.92;1.60;;;21.20;94.10;;;;;;5073665;28;20048;-64
2022/07/26 12:29:55;;;;;;;4.82;1.63;;;21.10;93.80;;;;;;5057367;28;20174;-63
2022/07/26 12:32:47;;;;;;;6.10;1.70;;;21.10;94.00;;;;;;5075274;28;20090;-63
2022/07/26 12:35:24;;;;;;;6.45;1.65;;;21.20;94.70;;;;;;5075370;28;20127;-62
2022/07/26 12:37:52;;;;;;;6.22;1.73;;;21.20;95.00;;;;;;5056978;28;20052;-62
2022/07/26 12:40:29;;;;;;;6.85;1.73;;;21.20;94.70;;;;;;5057767;28;20367;-64
2022/07/26 12:42:57;;;;;;;6.45;1.70;;;21.20;94.80;;;;;;5074377;28;20048;-63
2022/07/26 12:45:29;;;;;;;7.50;1.90;;;21.10;94.80;;;;;;5074784;28;20037;-63
2022/07/26 12:47:56;;;;;;;8.18;1.67;;;21.00;95.00;;;;;;5074222;28;20060;-64
2022/07/26 12:50:25;;;;;;;5.65;1.73;;;21.00;95.10;;;;;;5073772;28;20051;-63